createdAt,value
2017-08-23T00:00:38.772Z,12.4
2017-08-23T00:01:46.251Z,12.3
2017-08-23T00:02:53.731Z,12.3
2017-08-23T00:04:01.205Z,12.3
2017-08-23T00:05:08.991Z,12.3
2017-08-23T00:06:16.472Z,12.3
2017-08-23T00:07:23.949Z,12.3
2017-08-23T00:08:31.425Z,12.3
2017-08-23T00:09:38.906Z,12.3
2017-08-23T00:10:46.683Z,12.3
2017-08-23T00:11:54.162Z,12.3
2017-08-23T00:13:01.655Z,12.3
2017-08-23T00:14:09.135Z,12.2
2017-08-23T00:15:16.614Z,12.2
2017-08-23T00:16:24.062Z,12.2
2017-08-23T00:17:31.539Z,12.2
2017-08-23T00:18:39.012Z,12.2
2017-08-23T00:19:46.497Z,12.2
2017-08-23T00:20:53.976Z,12.2
2017-08-23T00:22:01.750Z,12.1
2017-08-23T00:23:09.226Z,12.2
2017-08-23T00:24:16.700Z,12.1
2017-08-23T00:25:24.408Z,12.1
2017-08-23T00:26:31.556Z,12.1
2017-08-23T00:27:39.362Z,12.1
2017-08-23T00:28:46.843Z,12.1
2017-08-23T00:29:54.317Z,12.1
2017-08-23T00:31:01.794Z,12.1
2017-08-23T00:32:09.268Z,12.1
2017-08-23T00:33:16.713Z,12.1
2017-08-23T00:34:24.187Z,12.1
2017-08-23T00:35:31.673Z,12.1
2017-08-23T00:36:38.822Z,12
2017-08-23T00:37:46.295Z,12
2017-08-23T00:38:53.739Z,12
2017-08-23T00:40:01.240Z,12
2017-08-23T00:41:08.706Z,11.9
2017-08-23T00:42:16.187Z,11.8
2017-08-23T00:43:23.657Z,11.7
2017-08-23T00:44:31.102Z,11.6
2017-08-23T00:45:38.575Z,11.6
2017-08-23T00:46:46.047Z,11.6
2017-08-23T00:47:53.199Z,11.6
2017-08-23T00:49:00.672Z,11.5
2017-08-23T00:50:08.448Z,11.6
2017-08-23T00:51:15.917Z,11.6
2017-08-23T00:52:23.399Z,11.6
2017-08-23T00:53:30.884Z,11.6
2017-08-23T00:54:38.358Z,11.6
2017-08-23T00:55:46.134Z,11.6
2017-08-23T00:56:53.615Z,11.6
2017-08-23T00:58:01.086Z,11.6
2017-08-23T00:59:08.234Z,11.6
2017-08-23T01:00:15.379Z,11.6
2017-08-23T01:01:23.177Z,11.6
2017-08-23T01:02:30.649Z,11.6
2017-08-23T01:03:38.126Z,11.6
2017-08-23T01:04:45.598Z,11.7
2017-08-23T01:05:53.073Z,11.6
2017-08-23T01:07:00.850Z,11.6
2017-08-23T01:08:08.331Z,11.6
2017-08-23T01:09:15.807Z,11.6
2017-08-23T01:10:23.280Z,11.6
2017-08-23T01:11:30.755Z,11.6
2017-08-23T01:12:38.527Z,11.6
2017-08-23T01:13:46.005Z,11.6
2017-08-23T01:14:53.481Z,11.6
2017-08-23T01:16:00.955Z,11.6
2017-08-23T01:17:08.431Z,11.5
2017-08-23T01:18:16.204Z,11.5
2017-08-23T01:19:23.675Z,11.5
2017-08-23T01:20:30.828Z,11.5
2017-08-23T01:21:38.307Z,11.5
2017-08-23T01:22:45.782Z,11.5
2017-08-23T01:23:53.558Z,11.5
2017-08-23T01:25:01.035Z,11.5
2017-08-23T01:26:08.510Z,11.5
2017-08-23T01:27:15.979Z,11.4
2017-08-23T01:28:23.459Z,11.4
2017-08-23T01:29:31.232Z,11.4
2017-08-23T01:30:38.378Z,11.4
2017-08-23T01:31:45.850Z,11.3
2017-08-23T01:32:52.995Z,11.4
2017-08-23T01:34:00.138Z,11.4
2017-08-23T01:35:07.914Z,11.4
2017-08-23T01:36:15.389Z,11.4
2017-08-23T01:37:22.866Z,11.4
2017-08-23T01:38:30.335Z,11.3
2017-08-23T01:39:37.157Z,11.3
2017-08-23T01:40:44.936Z,11.3
2017-08-23T01:41:52.409Z,11.3
2017-08-23T01:42:59.888Z,11.3
2017-08-23T01:44:07.363Z,11.3
2017-08-23T01:45:14.515Z,11.3
2017-08-23T01:46:21.969Z,11.3
2017-08-23T01:47:29.446Z,11.3
2017-08-23T01:48:36.928Z,11.3
2017-08-23T01:49:44.402Z,11.2
2017-08-23T01:50:51.874Z,11.2
2017-08-23T01:51:59.655Z,11.2
2017-08-23T01:53:07.136Z,11.2
2017-08-23T01:54:14.611Z,11.2
2017-08-23T01:55:22.113Z,11.2
2017-08-23T01:56:29.601Z,11.3
2017-08-23T01:57:37.067Z,11.2
2017-08-23T01:58:44.583Z,11.2
2017-08-23T01:59:52.129Z,11.2
2017-08-23T02:00:59.668Z,11.3
2017-08-23T02:02:07.200Z,11.2
2017-08-23T02:03:15.039Z,11.2
2017-08-23T02:04:22.572Z,11.2
2017-08-23T02:05:30.109Z,11.2
2017-08-23T02:06:36.989Z,11.2
2017-08-23T02:10:59.343Z,11.2
2017-08-23T02:12:06.820Z,11.2
2017-08-23T02:13:14.294Z,11.2
2017-08-23T02:14:22.065Z,11.2
2017-08-23T02:15:29.548Z,11.2
2017-08-23T02:16:36.700Z,11.2
2017-08-23T02:17:44.189Z,11.2
2017-08-23T02:18:51.666Z,11.1
2017-08-23T02:19:59.109Z,11.1
2017-08-23T02:21:06.586Z,11.1
2017-08-23T02:22:14.077Z,11.1
2017-08-23T02:23:21.549Z,11.1
2017-08-23T02:24:29.024Z,11
2017-08-23T02:25:36.801Z,11
2017-08-23T02:26:43.948Z,11
2017-08-23T02:27:51.103Z,11
2017-08-23T02:28:58.243Z,11
2017-08-23T02:30:05.725Z,11
2017-08-23T02:31:13.499Z,11
2017-08-23T02:32:20.976Z,11
2017-08-23T02:33:28.447Z,11
2017-08-23T02:34:35.925Z,11
2017-08-23T02:35:42.741Z,11
2017-08-23T02:36:50.584Z,11
2017-08-23T02:37:58.063Z,11
2017-08-23T02:39:05.539Z,11
2017-08-23T02:40:13.019Z,11
2017-08-23T02:41:20.169Z,11
2017-08-23T02:42:27.953Z,11
2017-08-23T02:43:35.429Z,11
2017-08-23T02:44:42.573Z,10.9
2017-08-23T02:45:50.048Z,10.9
2017-08-23T02:46:57.532Z,10.9
2017-08-23T02:48:05.308Z,10.9
2017-08-23T02:49:12.779Z,10.9
2017-08-23T02:50:20.259Z,10.9
2017-08-23T02:51:27.736Z,10.9
2017-08-23T02:52:35.220Z,10.9
2017-08-23T02:53:42.946Z,10.9
2017-08-23T02:54:50.420Z,10.9
2017-08-23T02:55:57.896Z,10.9
2017-08-23T02:57:05.372Z,10.9
2017-08-23T02:58:12.846Z,10.9
2017-08-23T02:59:20.615Z,10.9
2017-08-23T03:00:28.108Z,10.9
2017-08-23T03:01:35.246Z,10.9
2017-08-23T03:02:42.389Z,10.9
2017-08-23T03:03:49.867Z,10.9
2017-08-23T03:04:57.650Z,10.9
2017-08-23T03:06:05.130Z,10.9
2017-08-23T03:07:12.599Z,10.9
2017-08-23T03:08:20.075Z,10.9
2017-08-23T03:09:27.545Z,10.9
2017-08-23T03:10:35.370Z,10.9
2017-08-23T03:11:42.843Z,10.9
2017-08-23T03:12:50.324Z,10.9
2017-08-23T03:13:57.797Z,10.9
2017-08-23T03:15:05.270Z,10.9
2017-08-23T03:16:12.773Z,10.9
2017-08-23T03:17:20.253Z,10.8
2017-08-23T03:18:27.727Z,10.8
2017-08-23T03:19:35.436Z,10.8
2017-08-23T03:20:42.909Z,10.8
2017-08-23T03:21:50.401Z,10.8
2017-08-23T03:22:57.871Z,10.8
2017-08-23T03:24:05.351Z,10.8
2017-08-23T03:25:12.832Z,10.8
2017-08-23T03:26:20.302Z,10.7
2017-08-23T03:27:28.081Z,10.7
2017-08-23T03:28:35.552Z,10.8
2017-08-23T03:29:43.263Z,10.8
2017-08-23T03:30:50.748Z,10.7
2017-08-23T03:31:58.223Z,10.7
2017-08-23T03:33:05.997Z,10.7
2017-08-23T03:34:13.137Z,10.7
2017-08-23T03:35:20.613Z,10.8
2017-08-23T03:36:28.089Z,10.7
2017-08-23T03:37:35.565Z,10.7
2017-08-23T03:38:43.350Z,10.7
2017-08-23T03:39:50.834Z,10.6
2017-08-23T03:40:58.315Z,10.6
2017-08-23T03:42:05.788Z,10.6
2017-08-23T03:43:13.268Z,10.6
2017-08-23T03:44:21.046Z,10.6
2017-08-23T03:45:28.527Z,10.6
2017-08-23T03:46:36.035Z,10.6
2017-08-23T03:47:43.511Z,10.6
2017-08-23T03:48:50.981Z,10.6
2017-08-23T03:49:58.458Z,10.6
2017-08-23T03:51:05.942Z,10.6
2017-08-23T03:52:13.416Z,10.6
2017-08-23T03:53:20.888Z,10.6
2017-08-23T03:54:28.032Z,10.6
2017-08-23T03:55:35.182Z,10.6
2017-08-23T03:56:42.675Z,10.6
2017-08-23T03:57:50.147Z,10.6
2017-08-23T03:58:57.625Z,10.6
2017-08-23T04:00:05.448Z,10.6
2017-08-23T04:01:12.950Z,10.6
2017-08-23T04:02:20.430Z,10.5
2017-08-23T04:03:27.904Z,10.6
2017-08-23T04:04:35.380Z,10.5
2017-08-23T04:05:43.207Z,10.6
2017-08-23T04:06:50.684Z,10.6
2017-08-23T04:07:58.163Z,10.6
2017-08-23T04:09:05.633Z,10.5
2017-08-23T04:10:12.775Z,10.5
2017-08-23T04:11:20.554Z,10.5
2017-08-23T04:12:27.702Z,10.5
2017-08-23T04:13:35.174Z,10.5
2017-08-23T04:14:42.655Z,10.5
2017-08-23T04:15:50.133Z,10.5
2017-08-23T04:16:57.959Z,10.5
2017-08-23T04:18:05.104Z,10.5
2017-08-23T04:19:12.579Z,10.5
2017-08-23T04:20:20.049Z,10.5
2017-08-23T04:21:27.530Z,10.5
2017-08-23T04:22:34.918Z,10.5
2017-08-23T04:23:42.392Z,10.5
2017-08-23T04:24:49.871Z,10.5
2017-08-23T04:25:57.020Z,10.5
2017-08-23T04:27:04.498Z,10.5
2017-08-23T04:28:11.994Z,10.5
2017-08-23T04:29:19.468Z,10.5
2017-08-23T04:30:26.950Z,10.5
2017-08-23T04:31:34.424Z,10.5
2017-08-23T04:32:42.201Z,10.5
2017-08-23T04:33:49.672Z,10.5
2017-08-23T04:34:56.821Z,10.5
2017-08-23T04:36:04.298Z,10.5
2017-08-23T04:37:11.771Z,10.6
2017-08-23T04:38:19.555Z,10.6
2017-08-23T04:39:27.026Z,10.6
2017-08-23T04:40:34.521Z,10.6
2017-08-23T04:41:42.033Z,10.6
2017-08-23T04:42:49.512Z,10.6
2017-08-23T04:43:57.336Z,10.6
2017-08-23T04:45:04.809Z,10.6
2017-08-23T04:46:12.278Z,10.6
2017-08-23T04:47:19.748Z,10.6
2017-08-23T04:48:27.230Z,10.7
2017-08-23T04:49:34.706Z,10.7
2017-08-23T04:50:41.861Z,10.7
2017-08-23T04:51:49.371Z,10.7
2017-08-23T04:52:56.851Z,10.7
2017-08-23T04:54:04.323Z,10.7
2017-08-23T04:55:12.102Z,10.7
2017-08-23T04:56:19.580Z,10.7
2017-08-23T04:57:27.057Z,10.8
2017-08-23T04:58:34.540Z,10.8
2017-08-23T04:59:42.023Z,10.8
2017-08-23T05:00:49.856Z,10.8
2017-08-23T05:01:57.329Z,10.8
2017-08-23T05:03:04.806Z,10.8
2017-08-23T05:04:12.294Z,10.9
2017-08-23T05:05:19.765Z,10.9
2017-08-23T05:06:26.915Z,10.9
2017-08-23T05:07:34.398Z,10.9
2017-08-23T05:08:41.546Z,11
2017-08-23T05:09:49.015Z,11
2017-08-23T05:10:56.490Z,11
2017-08-23T05:12:03.925Z,11
2017-08-23T05:13:11.411Z,11.1
2017-08-23T05:14:18.878Z,11.1
2017-08-23T05:15:26.017Z,11.2
2017-08-23T05:16:33.496Z,11.1
2017-08-23T05:17:41.318Z,11.2
2017-08-23T05:18:48.798Z,11.2
2017-08-23T05:19:55.942Z,11.2
2017-08-23T05:21:03.418Z,11.2
2017-08-23T05:22:10.897Z,11.3
2017-08-23T05:23:18.670Z,11.3
2017-08-23T05:24:26.144Z,11.3
2017-08-23T05:25:33.616Z,11.4
2017-08-23T05:26:41.085Z,11.4
2017-08-23T05:27:48.562Z,11.4
2017-08-23T05:28:56.041Z,11.5
2017-08-23T05:30:03.522Z,11.5
2017-08-23T05:31:11.001Z,11.5
2017-08-23T05:32:18.474Z,11.6
2017-08-23T05:33:25.945Z,11.6
2017-08-23T05:34:33.777Z,11.6
2017-08-23T05:35:41.254Z,11.6
2017-08-23T05:36:48.733Z,11.6
2017-08-23T05:37:56.208Z,11.6
2017-08-23T05:39:03.691Z,11.7
2017-08-23T05:40:11.518Z,11.7
2017-08-23T05:41:18.990Z,11.7
2017-08-23T05:42:26.466Z,11.8
2017-08-23T05:43:33.977Z,11.8
2017-08-23T05:44:41.445Z,11.9
2017-08-23T05:45:49.231Z,11.9
2017-08-23T05:46:56.708Z,11.9
2017-08-23T05:48:04.180Z,12
2017-08-23T05:49:11.657Z,12
2017-08-23T05:50:19.128Z,12
2017-08-23T05:51:26.609Z,12
2017-08-23T05:52:34.082Z,12.1
2017-08-23T05:53:41.557Z,12.1
2017-08-23T05:54:48.371Z,12.1
2017-08-23T05:55:56.200Z,12.2
2017-08-23T05:57:03.671Z,12.2
2017-08-23T05:58:10.839Z,12.2
2017-08-23T05:59:17.983Z,12.3
2017-08-23T06:00:25.458Z,12.4
2017-08-23T06:01:33.234Z,12.4
2017-08-23T06:02:40.712Z,12.5
2017-08-23T06:03:48.426Z,12.5
2017-08-23T06:04:55.901Z,12.6
2017-08-23T06:06:03.394Z,12.6
2017-08-23T06:07:10.890Z,12.7
2017-08-23T06:08:18.362Z,12.7
2017-08-23T06:09:25.838Z,12.8
2017-08-23T06:10:32.985Z,12.8
2017-08-23T06:11:40.472Z,12.9
2017-08-23T06:12:47.962Z,12.9
2017-08-23T06:13:55.435Z,13
2017-08-23T06:15:02.907Z,13.1
2017-08-23T06:16:10.383Z,13.1
2017-08-23T06:17:17.860Z,13.2
2017-08-23T06:18:25.339Z,13.3
2017-08-23T06:19:32.813Z,13.4
2017-08-23T06:20:39.958Z,13.5
2017-08-23T06:21:47.438Z,13.7
2017-08-23T06:22:54.585Z,13.8
2017-08-23T06:24:02.412Z,14
2017-08-23T06:25:09.885Z,14.1
2017-08-23T06:26:17.361Z,14.2
2017-08-23T06:27:24.834Z,14.3
2017-08-23T06:28:32.662Z,14.4
2017-08-23T06:29:40.150Z,14.5
2017-08-23T06:30:47.618Z,14.6
2017-08-23T06:31:54.766Z,14.7
2017-08-23T06:33:01.933Z,14.9
2017-08-23T06:34:09.429Z,15.1
2017-08-23T06:35:16.576Z,15.3
2017-08-23T06:36:23.385Z,15.4
2017-08-23T06:37:30.868Z,15.4
2017-08-23T06:38:38.015Z,15.6
2017-08-23T06:39:45.796Z,15.8
2017-08-23T06:40:53.272Z,15.9
2017-08-23T06:42:00.751Z,15.9
2017-08-23T06:43:08.228Z,15.9
2017-08-23T06:44:15.718Z,16
2017-08-23T06:45:23.201Z,16.1
2017-08-23T06:46:30.680Z,16.1
2017-08-23T06:47:37.825Z,16.2
2017-08-23T06:48:45.300Z,16.4
2017-08-23T06:49:52.446Z,16.5
2017-08-23T06:50:59.956Z,16.7
2017-08-23T06:52:07.439Z,16.8
2017-08-23T06:53:14.913Z,16.7
2017-08-23T06:54:22.397Z,16.8
2017-08-23T06:55:29.875Z,17
2017-08-23T06:56:37.699Z,17.1
2017-08-23T06:57:45.178Z,17.2
2017-08-23T06:58:52.655Z,17.2
2017-08-23T07:00:00.373Z,17.3
2017-08-23T07:01:07.514Z,17.4
2017-08-23T07:02:15.293Z,17.5
2017-08-23T07:03:22.472Z,17.6
2017-08-23T07:04:29.944Z,17.7
2017-08-23T07:05:37.421Z,17.8
2017-08-23T07:06:44.906Z,17.9
2017-08-23T07:07:52.353Z,18
2017-08-23T07:08:59.829Z,18.1
2017-08-23T07:10:07.309Z,18.3
2017-08-23T07:11:14.795Z,18.4
2017-08-23T07:12:22.271Z,18.5
2017-08-23T07:13:30.062Z,18.5
2017-08-23T07:14:37.209Z,18.4
2017-08-23T07:15:44.690Z,18.5
2017-08-23T07:16:52.173Z,18.7
2017-08-23T07:17:59.332Z,18.9
2017-08-23T07:19:06.819Z,18.9
2017-08-23T07:20:13.638Z,19.1
2017-08-23T07:21:20.781Z,19.2
2017-08-23T07:22:28.637Z,19.2
2017-08-23T07:23:36.117Z,19.2
2017-08-23T07:24:43.602Z,19.3
2017-08-23T07:25:50.750Z,19.4
2017-08-23T07:26:58.228Z,19.5
2017-08-23T07:28:06.017Z,19.5
2017-08-23T07:29:13.496Z,19.7
2017-08-23T07:30:35.554Z,19.7
2017-08-23T07:31:42.701Z,19.9
2017-08-23T07:32:50.188Z,20.1
2017-08-23T07:33:58.021Z,20.2
2017-08-23T07:35:05.501Z,20.3
2017-08-23T07:36:13.022Z,20.2
2017-08-23T07:37:20.166Z,20
2017-08-23T07:38:27.657Z,19.7
2017-08-23T07:39:35.133Z,19.5
2017-08-23T07:40:42.284Z,19.5
2017-08-23T07:41:49.768Z,19.8
2017-08-23T07:42:57.245Z,20.1
2017-08-23T07:44:04.735Z,20.4
2017-08-23T07:45:12.241Z,20.7
2017-08-23T07:46:19.719Z,20.6
2017-08-23T07:47:27.194Z,20.5
2017-08-23T07:48:34.357Z,20.5
2017-08-23T07:49:41.843Z,20.8
2017-08-23T07:50:49.627Z,21.1
2017-08-23T07:51:56.784Z,21.3
2017-08-23T07:53:04.268Z,21.3
2017-08-23T07:54:11.749Z,21.5
2017-08-23T07:55:19.231Z,21.4
2017-08-23T07:56:26.709Z,21.2
2017-08-23T07:57:34.187Z,21.3
2017-08-23T07:58:41.674Z,21.3
2017-08-23T07:59:49.160Z,21.3
2017-08-23T08:00:56.641Z,21.4
2017-08-23T08:02:04.482Z,21.5
2017-08-23T08:03:11.973Z,21.4
2017-08-23T08:04:19.460Z,21.4
2017-08-23T08:05:26.945Z,21.6
2017-08-23T08:06:34.424Z,21.9
2017-08-23T08:07:42.215Z,22.1
2017-08-23T08:08:49.696Z,22
2017-08-23T08:09:56.863Z,21.9
2017-08-23T08:11:04.345Z,22.1
2017-08-23T08:12:11.824Z,22.2
2017-08-23T08:13:19.655Z,22.2
2017-08-23T08:14:26.795Z,22.2
2017-08-23T08:15:33.996Z,22.3
2017-08-23T08:16:41.478Z,22.3
2017-08-23T08:17:48.966Z,22.4
2017-08-23T08:18:56.439Z,22.5
2017-08-23T08:20:04.265Z,22.8
2017-08-23T08:21:11.742Z,23.1
2017-08-23T08:22:19.223Z,23
2017-08-23T08:23:26.715Z,23.2
2017-08-23T08:24:34.216Z,23.3
2017-08-23T08:25:41.698Z,23.6
2017-08-23T08:26:49.192Z,23.8
2017-08-23T08:27:56.675Z,24
2017-08-23T08:29:04.156Z,24.2
2017-08-23T08:30:11.999Z,24.3
2017-08-23T08:31:19.481Z,23.7
2017-08-23T08:32:26.628Z,23.3
2017-08-23T08:33:34.109Z,23.2
2017-08-23T08:34:41.591Z,22.8
2017-08-23T08:35:49.374Z,22.7
2017-08-23T08:36:56.867Z,22.7
2017-08-23T08:38:04.358Z,22.9
2017-08-23T08:39:11.517Z,23.1
2017-08-23T08:40:19.241Z,23
2017-08-23T08:41:27.025Z,23
2017-08-23T08:42:34.507Z,23
2017-08-23T08:43:41.993Z,23.2
2017-08-23T08:44:49.469Z,23.6
2017-08-23T08:45:56.955Z,23.8
2017-08-23T08:47:04.745Z,23.8
2017-08-23T08:48:12.224Z,23.9
2017-08-23T08:49:19.705Z,23.9
2017-08-23T08:50:27.189Z,24.1
2017-08-23T08:51:34.344Z,24.1
2017-08-23T08:52:42.128Z,24.1
2017-08-23T08:53:49.282Z,24.2
2017-08-23T08:54:56.765Z,24.1
2017-08-23T08:56:04.251Z,24.1
2017-08-23T08:57:11.731Z,24.1
2017-08-23T08:58:19.514Z,24.2
2017-08-23T08:59:26.998Z,24.2
2017-08-23T09:00:34.486Z,24.4
2017-08-23T09:01:41.972Z,24.6
2017-08-23T09:02:49.462Z,24.7
2017-08-23T09:03:57.241Z,24.8
2017-08-23T09:05:04.721Z,24.9
2017-08-23T09:06:11.882Z,24.9
2017-08-23T09:07:19.036Z,24.7
2017-08-23T09:08:26.521Z,24.6
2017-08-23T09:09:34.304Z,24.6
2017-08-23T09:10:41.794Z,24.5
2017-08-23T09:11:49.287Z,24.7
2017-08-23T09:12:56.792Z,24.8
2017-08-23T09:14:04.299Z,24.7
2017-08-23T09:15:12.086Z,24.8
2017-08-23T09:16:19.563Z,25.2
2017-08-23T09:17:27.054Z,25.6
2017-08-23T09:18:34.536Z,25.7
2017-08-23T09:19:41.712Z,25.6
2017-08-23T09:20:49.171Z,25.5
2017-08-23T09:21:56.656Z,25.2
2017-08-23T09:23:18.726Z,25.2
2017-08-23T09:24:26.214Z,25.4
2017-08-23T09:25:33.692Z,25.5
2017-08-23T09:26:41.485Z,25.7
2017-08-23T09:27:48.972Z,25.9
2017-08-23T09:28:56.456Z,26.1
2017-08-23T09:30:03.936Z,26.1
2017-08-23T09:31:11.433Z,26.1
2017-08-23T09:32:19.219Z,26
2017-08-23T09:33:26.702Z,26
2017-08-23T09:34:33.852Z,26.1
2017-08-23T09:35:41.335Z,25.8
2017-08-23T09:36:48.488Z,25.2
2017-08-23T09:37:56.276Z,25.4
2017-08-23T09:39:03.756Z,25.5
2017-08-23T09:40:11.240Z,25.9
2017-08-23T09:41:18.729Z,26.1
2017-08-23T09:42:25.890Z,25.4
2017-08-23T09:43:33.675Z,25.3
2017-08-23T09:44:40.819Z,24.8
2017-08-23T09:45:48.310Z,24.7
2017-08-23T09:46:55.794Z,24.9
2017-08-23T09:48:03.277Z,25.2
2017-08-23T09:49:11.062Z,25.4
2017-08-23T09:50:18.549Z,25.3
2017-08-23T09:51:26.043Z,25.2
2017-08-23T09:52:33.526Z,25.4
2017-08-23T09:53:41.018Z,25.6
2017-08-23T09:54:48.801Z,25.7
2017-08-23T09:55:56.290Z,26
2017-08-23T09:57:03.784Z,26.2
2017-08-23T09:58:11.268Z,26.2
2017-08-23T09:59:18.757Z,26.1
2017-08-23T10:00:26.534Z,26.3
2017-08-23T10:01:34.021Z,26.3
2017-08-23T10:02:41.506Z,26.5
2017-08-23T10:03:49.004Z,26.6
2017-08-23T10:04:56.488Z,26.7
2017-08-23T10:06:03.947Z,26.7
2017-08-23T10:07:11.436Z,26.7
2017-08-23T10:08:18.598Z,26.9
2017-08-23T10:09:26.082Z,27
2017-08-23T10:10:32.913Z,26.9
2017-08-23T10:11:40.703Z,26.9
2017-08-23T10:12:48.185Z,27
2017-08-23T10:13:55.668Z,26.9
2017-08-23T10:15:03.161Z,26.4
2017-08-23T10:16:10.651Z,26.1
2017-08-23T10:17:18.164Z,26.2
2017-08-23T10:18:25.645Z,26.1
2017-08-23T10:19:33.132Z,26.1
2017-08-23T10:20:40.643Z,26.5
2017-08-23T10:21:47.457Z,26.6
2017-08-23T10:22:54.934Z,26.8
2017-08-23T10:24:02.415Z,26.8
2017-08-23T10:25:09.903Z,27
2017-08-23T10:26:17.382Z,27.3
2017-08-23T10:27:24.918Z,27.7
2017-08-23T10:28:32.799Z,28.1
2017-08-23T10:29:40.298Z,28
2017-08-23T10:30:47.792Z,27.7
2017-08-23T10:31:55.282Z,27.2
2017-08-23T10:33:02.780Z,26.9
2017-08-23T10:34:10.264Z,26.8
2017-08-23T10:35:17.763Z,27
2017-08-23T10:36:25.252Z,27.2
2017-08-23T10:37:32.403Z,27.2
2017-08-23T10:38:39.892Z,27.3
2017-08-23T10:39:47.680Z,27.3
2017-08-23T10:40:55.166Z,26.7
2017-08-23T10:42:02.661Z,26.8
2017-08-23T10:43:10.161Z,26.8
2017-08-23T10:44:17.643Z,27
2017-08-23T10:45:25.429Z,27.2
2017-08-23T10:46:32.914Z,27.6
2017-08-23T10:47:40.408Z,27.8
2017-08-23T10:48:47.896Z,27.8
2017-08-23T10:49:55.392Z,26.9
2017-08-23T10:51:03.181Z,26.8
2017-08-23T10:52:10.676Z,26.9
2017-08-23T10:53:18.173Z,27.2
2017-08-23T10:54:25.684Z,27.5
2017-08-23T10:55:33.177Z,27.7
2017-08-23T10:56:40.659Z,27.3
2017-08-23T10:57:48.148Z,27.2
2017-08-23T10:58:55.311Z,27.2
2017-08-23T11:00:02.789Z,27.4
2017-08-23T11:01:09.941Z,27.7
2017-08-23T11:02:17.729Z,27.6
2017-08-23T11:03:25.223Z,27.3
2017-08-23T11:04:32.367Z,27
2017-08-23T11:05:39.851Z,26.9
2017-08-23T11:06:47.338Z,27.2
2017-08-23T11:07:55.126Z,27.3
2017-08-23T11:09:02.282Z,27.3
2017-08-23T11:10:09.769Z,27.3
2017-08-23T11:11:17.279Z,27.4
2017-08-23T11:12:24.777Z,27.4
2017-08-23T11:13:32.273Z,27.1
2017-08-23T11:14:39.423Z,27.3
2017-08-23T11:15:46.913Z,27.4
2017-08-23T11:16:54.407Z,27.7
2017-08-23T11:18:01.891Z,28.1
2017-08-23T11:19:09.679Z,28.2
2017-08-23T11:20:17.169Z,28.2
2017-08-23T11:21:24.668Z,28.4
2017-08-23T11:22:31.830Z,28.7
2017-08-23T11:23:39.323Z,28.7
2017-08-23T11:24:47.113Z,28.7
2017-08-23T11:25:54.599Z,28.4
2017-08-23T11:27:02.087Z,28.1
2017-08-23T11:28:09.575Z,28
2017-08-23T11:29:16.731Z,28
2017-08-23T11:30:24.519Z,28.2
2017-08-23T11:31:32.002Z,28.2
2017-08-23T11:32:39.488Z,28
2017-08-23T11:33:46.642Z,28.2
2017-08-23T11:34:54.125Z,28.3
2017-08-23T11:36:01.278Z,28.6
2017-08-23T11:37:08.427Z,28.8
2017-08-23T11:38:15.592Z,28.8
2017-08-23T11:39:23.077Z,29.1
2017-08-23T11:40:30.568Z,28.7
2017-08-23T11:41:38.352Z,28.6
2017-08-23T11:42:45.837Z,28.2
2017-08-23T11:43:52.997Z,27.9
2017-08-23T11:45:00.487Z,28
2017-08-23T11:46:07.972Z,27.9
2017-08-23T11:47:15.773Z,27.7
2017-08-23T11:48:23.259Z,27.8
2017-08-23T11:49:30.751Z,27.9
2017-08-23T11:50:38.243Z,27.9
2017-08-23T11:51:45.730Z,28.1
2017-08-23T11:52:53.513Z,28.5
2017-08-23T11:54:01.001Z,28.5
2017-08-23T11:55:08.489Z,28
2017-08-23T11:56:15.972Z,28
2017-08-23T11:57:23.456Z,28.2
2017-08-23T11:58:31.286Z,28.8
2017-08-23T11:59:38.497Z,29.2
2017-08-23T12:00:45.982Z,29.4
2017-08-23T12:01:53.473Z,29.5
2017-08-23T12:03:00.629Z,29.6
2017-08-23T12:04:08.413Z,29.8
2017-08-23T12:05:15.901Z,29.6
2017-08-23T12:06:23.392Z,29.7
2017-08-23T12:07:30.969Z,29.9
2017-08-23T12:08:38.552Z,29.8
2017-08-23T12:09:46.035Z,29.8
2017-08-23T12:10:53.526Z,29.3
2017-08-23T12:12:01.014Z,28.9
2017-08-23T12:13:08.503Z,29.1
2017-08-23T12:14:15.998Z,29
2017-08-23T12:15:23.487Z,29.1
2017-08-23T12:16:30.973Z,29.3
2017-08-23T12:17:38.132Z,29.5
2017-08-23T12:18:45.628Z,29.9
2017-08-23T12:19:52.928Z,30
2017-08-23T12:21:00.798Z,30.1
2017-08-23T12:22:07.951Z,30.2
2017-08-23T12:23:15.445Z,29.9
2017-08-23T12:24:22.945Z,28.7
2017-08-23T12:25:30.101Z,28
2017-08-23T12:26:37.891Z,27.7
2017-08-23T12:27:45.379Z,27.4
2017-08-23T12:28:52.867Z,27.1
2017-08-23T12:30:00.357Z,27.2
2017-08-23T12:31:07.841Z,27.5
2017-08-23T12:32:15.641Z,27.8
2017-08-23T12:33:23.126Z,27.7
2017-08-23T12:34:30.618Z,27.9
2017-08-23T12:35:37.785Z,27.7
2017-08-23T12:36:44.949Z,28.2
2017-08-23T12:37:52.435Z,28.6
2017-08-23T12:38:59.928Z,28.6
2017-08-23T12:40:07.420Z,28.7
2017-08-23T12:41:14.910Z,29.1
2017-08-23T12:42:22.697Z,29.2
2017-08-23T12:43:30.185Z,29.3
2017-08-23T12:44:37.679Z,28.7
2017-08-23T12:45:45.170Z,28.5
2017-08-23T12:46:52.657Z,28.8
2017-08-23T12:48:00.444Z,29.1
2017-08-23T12:49:07.930Z,29.3
2017-08-23T12:50:15.094Z,29.5
2017-08-23T12:51:22.264Z,29.7
2017-08-23T12:52:29.757Z,30.2
2017-08-23T12:53:37.544Z,30.5
2017-08-23T12:54:45.039Z,30.6
2017-08-23T12:55:52.195Z,30.6
2017-08-23T12:56:59.353Z,30.5
2017-08-23T12:58:06.843Z,30.2
2017-08-23T12:59:14.631Z,30
2017-08-23T13:00:22.125Z,30.1
2017-08-23T13:01:29.608Z,30.2
2017-08-23T13:02:37.105Z,30.4
2017-08-23T13:03:44.597Z,30.4
2017-08-23T13:04:52.089Z,30.1
2017-08-23T13:05:59.251Z,30.2
2017-08-23T13:07:06.737Z,30.2
2017-08-23T13:08:14.225Z,30.3
2017-08-23T13:09:22.012Z,30.6
2017-08-23T13:10:29.505Z,30.3
2017-08-23T13:11:36.989Z,30
2017-08-23T13:12:44.482Z,29.7
2017-08-23T13:13:51.968Z,29.9
2017-08-23T13:14:59.753Z,30.2
2017-08-23T13:16:07.252Z,30.5
2017-08-23T13:17:14.735Z,30.8
2017-08-23T13:18:21.917Z,30.9
2017-08-23T13:19:28.750Z,31.1
2017-08-23T13:20:36.542Z,31.2
2017-08-23T13:21:44.032Z,31.4
2017-08-23T13:22:51.195Z,31.1
2017-08-23T13:23:58.346Z,30.7
2017-08-23T13:25:05.858Z,30.7
2017-08-23T13:26:13.648Z,30.2
2017-08-23T13:27:21.140Z,29.9
2017-08-23T13:28:28.628Z,29.6
2017-08-23T13:29:50.710Z,28.9
2017-08-23T13:30:57.855Z,29
2017-08-23T13:32:05.019Z,29.3
2017-08-23T13:33:12.519Z,29.2
2017-08-23T13:34:20.014Z,29.1
2017-08-23T13:35:27.542Z,28.6
2017-08-23T13:36:35.023Z,28.3
2017-08-23T13:37:42.517Z,28.3
2017-08-23T13:38:50.131Z,28.2
2017-08-23T13:39:57.289Z,28.2
2017-08-23T13:41:04.777Z,28.7
2017-08-23T13:42:12.565Z,29.4
2017-08-23T13:43:20.050Z,29.8
2017-08-23T13:44:27.215Z,30
2017-08-23T13:45:34.377Z,30.2
2017-08-23T13:46:41.870Z,30.1
2017-08-23T13:47:49.664Z,29.6
2017-08-23T13:48:57.153Z,29.2
2017-08-23T13:50:04.643Z,29.4
2017-08-23T13:51:12.136Z,29.9
2017-08-23T13:52:19.623Z,30.3
2017-08-23T13:53:27.082Z,30.7
2017-08-23T13:54:34.590Z,30.7
2017-08-23T13:55:42.077Z,30.5
2017-08-23T13:56:49.562Z,30.5
2017-08-23T13:57:57.047Z,30.4
2017-08-23T13:59:04.843Z,30.7
2017-08-23T14:00:12.333Z,31
2017-08-23T14:01:19.825Z,31.2
2017-08-23T14:02:27.315Z,31.5
2017-08-23T14:03:34.874Z,31.7
2017-08-23T14:04:42.675Z,31.9
2017-08-23T14:05:50.182Z,31.7
2017-08-23T14:06:57.673Z,31.3
2017-08-23T14:08:05.159Z,31.1
2017-08-23T14:09:12.664Z,30.9
2017-08-23T14:10:20.466Z,30.9
2017-08-23T14:11:27.623Z,30.7
2017-08-23T14:12:35.113Z,30.5
2017-08-23T14:13:42.598Z,30.7
2017-08-23T14:14:50.086Z,31
2017-08-23T14:15:57.871Z,31.3
2017-08-23T14:17:05.362Z,31.5
2017-08-23T14:18:12.514Z,31.7
2017-08-23T14:19:20.006Z,31.7
2017-08-23T14:20:28.917Z,31.8
2017-08-23T14:21:36.371Z,31
2017-08-23T14:22:43.860Z,30.7
2017-08-23T14:23:51.358Z,30.7
2017-08-23T14:24:58.849Z,30.8
2017-08-23T14:26:06.489Z,30.6
2017-08-23T14:27:14.507Z,30.1
2017-08-23T14:28:22.013Z,30.3
2017-08-23T14:29:29.502Z,30.6
2017-08-23T14:30:37.066Z,30.7
2017-08-23T14:31:44.661Z,30.7
2017-08-23T14:32:52.458Z,30.8
2017-08-23T14:33:59.951Z,31
2017-08-23T14:35:07.114Z,31.2
2017-08-23T14:36:14.603Z,31.3
2017-08-23T14:37:22.100Z,31.4
2017-08-23T14:38:29.571Z,30.8
2017-08-23T14:39:37.097Z,30.2
2017-08-23T14:40:44.604Z,29.8
2017-08-23T14:41:52.096Z,29.5
2017-08-23T14:42:59.581Z,29.5
2017-08-23T14:44:07.374Z,29.5
2017-08-23T14:45:14.867Z,29.5
2017-08-23T14:46:22.019Z,29.8
2017-08-23T14:47:29.509Z,30.2
2017-08-23T14:48:36.672Z,30.5
2017-08-23T14:49:44.461Z,30.4
2017-08-23T14:50:51.959Z,30.5
2017-08-23T14:51:58.791Z,30.6
2017-08-23T14:53:06.295Z,30.7
2017-08-23T14:54:13.796Z,30.4
2017-08-23T14:55:21.582Z,30.5
2017-08-23T14:56:29.090Z,30.7
2017-08-23T14:57:36.582Z,30.3
2017-08-23T14:58:44.072Z,30.2
2017-08-23T14:59:51.232Z,30
2017-08-23T15:00:59.039Z,30
2017-08-23T15:02:06.529Z,29.7
2017-08-23T15:03:14.013Z,29.8
2017-08-23T15:04:21.510Z,30
2017-08-23T15:05:29.002Z,30.4
2017-08-23T15:06:36.800Z,30.7
2017-08-23T15:07:44.290Z,30.3